createdAt,value
2018-12-03T00:00:25.585Z,993.26
2018-12-03T00:03:58.814Z,993.25
2018-12-03T00:07:28.922Z,993.18
2018-12-03T00:10:59.392Z,993.15
2018-12-03T00:14:29.415Z,993.06
2018-12-03T00:17:59.509Z,993.11
2018-12-03T00:21:29.613Z,993.04
2018-12-03T00:24:59.657Z,992.96
2018-12-03T00:28:29.820Z,992.94
2018-12-03T00:32:00.462Z,992.97
2018-12-03T00:35:31.158Z,992.98
2018-12-03T00:39:01.231Z,993.12
2018-12-03T00:42:31.416Z,993.01
2018-12-03T00:46:01.611Z,993.06
2018-12-03T00:49:31.683Z,993.36
2018-12-03T00:53:01.717Z,993.66
2018-12-03T00:56:31.791Z,993.92
2018-12-03T01:00:02.814Z,994.19
2018-12-03T01:03:32.890Z,994.07
2018-12-03T01:07:03.182Z,994.31
2018-12-03T01:10:33.365Z,995.05
2018-12-03T01:14:03.699Z,995.26
2018-12-03T01:17:33.845Z,994.97
2018-12-03T01:21:04.222Z,995.06
2018-12-03T01:24:34.231Z,995.16
2018-12-03T01:28:04.534Z,995.53
2018-12-03T01:31:34.710Z,996
2018-12-03T01:35:06.392Z,996.43
2018-12-03T01:38:36.526Z,996.84
2018-12-03T01:42:06.573Z,997.28
2018-12-03T01:45:36.664Z,998.13
2018-12-03T01:49:06.768Z,998.76
2018-12-03T01:52:36.981Z,999.1
2018-12-03T01:56:07.085Z,999.65
2018-12-03T01:59:37.258Z,999.76
2018-12-03T02:00:16.648Z,999.85
2018-12-03T02:03:46.681Z,1000.18
2018-12-03T02:07:16.975Z,1000.46
2018-12-03T02:10:46.920Z,1000.92
2018-12-03T02:14:17.013Z,1000.95
2018-12-03T02:17:47.067Z,1001.31
2018-12-03T02:21:17.190Z,1001.66
2018-12-03T02:24:47.164Z,1001.54
2018-12-03T02:28:17.233Z,1001.25
2018-12-03T02:31:47.262Z,1001.36
2018-12-03T02:35:17.356Z,1000.55
2018-12-03T02:38:47.360Z,999.86
2018-12-03T02:42:17.493Z,999.77
2018-12-03T02:45:47.683Z,999.47
2018-12-03T02:49:17.671Z,998.96
2018-12-03T02:52:47.650Z,998.03
2018-12-03T02:56:17.638Z,997.02
2018-12-03T02:59:47.700Z,996.21
2018-12-03T03:03:17.727Z,996.01
2018-12-03T03:06:47.871Z,995.39
2018-12-03T03:10:18.155Z,994.48
2018-12-03T03:13:48.188Z,993.67
2018-12-03T03:17:18.260Z,993.41
2018-12-03T03:20:48.286Z,993.97
2018-12-03T03:24:18.439Z,994.52
2018-12-03T03:27:48.483Z,994.82
2018-12-03T03:31:18.528Z,994.92
2018-12-03T03:34:48.560Z,995.54
2018-12-03T03:38:18.644Z,995.83
2018-12-03T03:41:48.768Z,995.99
2018-12-03T03:45:20.331Z,995.73
2018-12-03T03:48:50.415Z,995.54
2018-12-03T03:52:20.439Z,995.13
2018-12-03T03:55:50.503Z,995.05
2018-12-03T03:59:20.578Z,994.79
2018-12-03T04:00:15.055Z,994.69
2018-12-03T04:03:45.149Z,994.28
2018-12-03T04:07:15.348Z,994.45
2018-12-03T04:10:45.584Z,994.15
2018-12-03T04:14:15.640Z,993.71
2018-12-03T04:17:45.674Z,993.27
2018-12-03T04:21:15.788Z,993.03
2018-12-03T04:24:45.881Z,993.03
2018-12-03T04:28:15.945Z,992.74
2018-12-03T04:31:45.949Z,992.64
2018-12-03T04:35:15.967Z,992.23
2018-12-03T04:38:45.997Z,992.26
2018-12-03T04:42:16.111Z,992.43
2018-12-03T04:45:46.128Z,992.83
2018-12-03T04:49:16.219Z,992.78
2018-12-03T04:52:46.492Z,993.04
2018-12-03T04:56:16.609Z,992.65
2018-12-03T04:59:46.743Z,992.49
2018-12-03T05:03:16.794Z,992.32
2018-12-03T05:06:46.918Z,992.31
2018-12-03T05:10:18.152Z,992.79
2018-12-03T05:13:48.374Z,992.76
2018-12-03T05:17:18.569Z,992.83
2018-12-03T05:20:48.682Z,992.93
2018-12-03T05:24:18.816Z,993.2
2018-12-03T05:27:48.970Z,993.6
2018-12-03T05:31:19.059Z,993.85
2018-12-03T05:34:49.008Z,994.18
2018-12-03T05:38:19.081Z,994.95
2018-12-03T05:41:49.085Z,995.56
2018-12-03T05:45:19.289Z,996.54
2018-12-03T05:48:49.472Z,997.6
2018-12-03T05:52:19.505Z,998.34
2018-12-03T05:55:49.531Z,999.04
2018-12-03T05:59:19.704Z,999.7
2018-12-03T06:00:16.673Z,999.86
2018-12-03T06:03:46.647Z,1000.65
2018-12-03T06:07:16.821Z,1001.4
2018-12-03T06:10:46.927Z,1001.99
2018-12-03T06:14:17.198Z,1002.73
2018-12-03T06:17:48.632Z,1003.33
2018-12-03T06:21:18.776Z,1002.4
2018-12-03T06:24:48.890Z,1002.66
2018-12-03T06:28:18.993Z,1003.21
2018-12-03T06:31:49.177Z,1004.07
2018-12-03T06:35:19.592Z,1005.01
2018-12-03T06:38:49.605Z,1005.71
2018-12-03T06:42:19.829Z,1006.31
2018-12-03T06:45:50.203Z,1007.1
2018-12-03T06:49:20.218Z,1007.96
2018-12-03T06:52:50.247Z,1008.68
2018-12-03T06:56:20.291Z,1009.27
2018-12-03T06:59:50.309Z,1009.62
2018-12-03T07:03:20.355Z,1009.32
2018-12-03T07:06:50.377Z,1009.89
2018-12-03T07:10:21.192Z,1010.03
2018-12-03T07:13:51.287Z,1009.8
2018-12-03T07:17:21.539Z,1010.06
2018-12-03T07:20:51.603Z,1010.21
2018-12-03T07:24:21.747Z,1010.63
2018-12-03T07:27:51.920Z,1011.11
2018-12-03T07:31:21.971Z,1011.59
2018-12-03T07:34:52.010Z,1011.6
2018-12-03T07:38:22.383Z,1011.5
2018-12-03T07:41:52.468Z,1011.78
2018-12-03T07:45:23.061Z,1011.86
2018-12-03T07:48:53.115Z,1012.37
2018-12-03T07:52:23.179Z,1012.89
2018-12-03T07:55:53.163Z,1012.82
2018-12-03T07:59:23.424Z,1012.63
2018-12-03T08:00:19.356Z,1012.78
2018-12-03T08:03:49.430Z,1012.64
2018-12-03T08:07:19.454Z,1012.59
2018-12-03T08:10:51.328Z,1013.04
2018-12-03T08:14:21.433Z,1013.2
2018-12-03T08:17:54.026Z,1013.85
2018-12-03T08:21:24.126Z,1014.76
2018-12-03T08:24:54.134Z,1015.73
2018-12-03T08:28:24.198Z,1016.32
2018-12-03T08:31:54.196Z,1016.94
2018-12-03T08:35:24.265Z,1016.95
2018-12-03T08:38:54.290Z,1016.64
2018-12-03T08:42:24.344Z,1016.52
2018-12-03T08:45:57.227Z,1016.12
2018-12-03T08:49:27.497Z,1016.54
2018-12-03T08:52:57.646Z,1016.36
2018-12-03T08:56:27.783Z,1016.78
2018-12-03T08:59:57.894Z,1017.34
2018-12-03T09:03:29.098Z,1018.01
2018-12-03T09:06:59.082Z,1018.73
2018-12-03T09:10:29.326Z,1020.03
2018-12-03T09:13:59.350Z,1019.93
2018-12-03T09:17:29.460Z,1018.97
2018-12-03T09:20:59.958Z,1018.01
2018-12-03T09:24:29.988Z,1018.03
2018-12-03T09:28:00.106Z,1018.55
2018-12-03T09:31:30.171Z,1018.23
2018-12-03T09:35:02.399Z,1017.47
2018-12-03T09:39:40.009Z,1016.57
2018-12-03T09:43:10.071Z,1017.32
2018-12-03T09:46:40.275Z,1017.97
2018-12-03T09:50:14.759Z,1018.38
2018-12-03T09:53:51.476Z,1019.59
2018-12-03T09:57:21.537Z,1019.67
2018-12-03T10:00:15.992Z,1019.75
2018-12-03T10:03:46.067Z,1019.15
2018-12-03T10:07:17.700Z,1018.73
2018-12-03T10:10:49.844Z,1018.44
2018-12-03T10:14:20.074Z,1019.06
2018-12-03T10:17:50.142Z,1018.57
2018-12-03T10:21:20.417Z,1019.51
2018-12-03T10:24:50.494Z,1020.15
2018-12-03T10:28:20.745Z,1021.18
2018-12-03T10:31:50.851Z,1021.45
2018-12-03T10:35:21.027Z,1021.09
2018-12-03T10:38:51.090Z,1021.27
2018-12-03T10:42:21.242Z,1021.13
2018-12-03T10:45:51.305Z,1021.2
2018-12-03T10:49:21.370Z,1021.3
2018-12-03T10:52:51.664Z,1021.36
2018-12-03T10:56:21.818Z,1021.94
2018-12-03T10:59:53.243Z,1021.9
2018-12-03T11:06:19.142Z,1022.4
2018-12-03T11:09:49.275Z,1022.58
2018-12-03T11:13:19.590Z,1022.75
2018-12-03T11:16:49.858Z,1022.32
2018-12-03T11:20:20.117Z,1022.01
2018-12-03T11:23:50.344Z,1021.2
2018-12-03T11:27:20.995Z,1021.27
2018-12-03T11:30:52.843Z,1020.75
2018-12-03T11:34:23.923Z,1020.94
2018-12-03T11:38:30.305Z,1020.52
2018-12-03T11:42:02.121Z,1020.82
2018-12-03T11:45:32.195Z,1020.64
2018-12-03T11:49:02.539Z,1020.96
2018-12-03T11:52:32.983Z,1019.98
2018-12-03T11:56:03.088Z,1020.17
2018-12-03T11:59:33.231Z,1020.09
2018-12-03T12:00:15.021Z,1020.12
2018-12-03T12:03:45.224Z,1020.61
2018-12-03T12:07:15.312Z,1020.55
2018-12-03T12:10:45.382Z,1020.8
2018-12-03T12:14:20.566Z,1020.81
2018-12-03T12:17:50.793Z,1021.29
2018-12-03T12:21:20.824Z,1020.54
2018-12-03T12:24:51.155Z,1020.35
2018-12-03T12:28:21.213Z,1020.27
2018-12-03T12:31:51.708Z,1020.47
2018-12-03T12:35:21.762Z,1019.65
2018-12-03T12:38:51.921Z,1020.22
2018-12-03T12:42:22.009Z,1020.5
2018-12-03T12:45:57.083Z,1021.1
2018-12-03T12:49:27.207Z,1021.72
2018-12-03T12:52:57.220Z,1021.77
2018-12-03T12:56:27.304Z,1021.54
2018-12-03T12:59:57.388Z,1021.22
2018-12-03T13:03:27.532Z,1020.81
2018-12-03T13:06:57.696Z,1021.73
2018-12-03T13:10:27.700Z,1022.53
2018-12-03T13:13:57.921Z,1022.9
2018-12-03T13:17:27.988Z,1022.59
2018-12-03T13:20:58.102Z,1022.53
2018-12-03T13:24:28.137Z,1021.33
2018-12-03T13:27:58.562Z,1020.42
2018-12-03T13:31:28.594Z,1020.28
2018-12-03T13:34:58.659Z,1020.83
2018-12-03T13:38:28.620Z,1020.78
2018-12-03T13:41:58.658Z,1019.98
2018-12-03T13:45:28.711Z,1019.41
2018-12-03T13:48:58.862Z,1019.58
2018-12-03T13:52:29.049Z,1019.38
2018-12-03T13:55:59.143Z,1019.67
2018-12-03T13:59:29.138Z,1019.68
2018-12-03T14:00:19.417Z,1019.64
2018-12-03T14:04:12.731Z,1019.64
2018-12-03T14:07:53.313Z,1019.67
2018-12-03T14:11:31.818Z,1019.53
2018-12-03T14:17:20.896Z,1019.15
2018-12-03T14:20:52.421Z,1018.88
2018-12-03T14:24:22.437Z,1018.6
2018-12-03T14:27:52.499Z,1018.48
2018-12-03T14:31:22.903Z,1018.34
2018-12-03T14:34:52.957Z,1017.56
2018-12-03T14:38:23.103Z,1017.72
2018-12-03T14:41:53.150Z,1017.63
2018-12-03T14:45:23.340Z,1017.57
2018-12-03T14:48:53.403Z,1017.38
2018-12-03T14:52:23.462Z,1017.43
2018-12-03T14:55:53.651Z,1017.3
2018-12-03T14:59:23.816Z,1017.14
2018-12-03T15:02:53.739Z,1016.98
2018-12-03T15:06:23.824Z,1016.46
2018-12-03T15:09:53.888Z,1015.96
2018-12-03T15:13:23.953Z,1016.04
2018-12-03T15:16:53.946Z,1016.11
2018-12-03T15:20:24.060Z,1016.34
2018-12-03T15:23:54.094Z,1016.18
2018-12-03T15:27:24.282Z,1015.84
2018-12-03T15:30:54.352Z,1015.83
2018-12-03T15:34:24.776Z,1015.18
2018-12-03T15:37:54.823Z,1015.2
2018-12-03T15:41:24.865Z,1015.18
2018-12-03T15:44:54.828Z,1014.94
2018-12-03T15:48:24.905Z,1014.92
2018-12-03T15:51:54.936Z,1015.1
2018-12-03T15:55:24.980Z,1015.05
2018-12-03T15:58:55.084Z,1014.5
2018-12-03T16:00:13.996Z,1014.53
2018-12-03T16:03:44.151Z,1014.57
2018-12-03T16:07:14.380Z,1014.5
2018-12-03T16:10:44.715Z,1014.48
2018-12-03T16:14:14.788Z,1014.33
2018-12-03T16:17:44.962Z,1013.61
2018-12-03T16:21:14.976Z,1013.23
2018-12-03T16:24:45.133Z,1012.95
2018-12-03T16:28:15.208Z,1012.87
2018-12-03T16:31:45.338Z,1012.98
2018-12-03T16:35:15.712Z,1013.06
2018-12-03T16:38:45.907Z,1013.08
2018-12-03T16:42:15.871Z,1012.8
2018-12-03T16:45:45.985Z,1012.72
2018-12-03T16:49:16.036Z,1012.8
2018-12-03T16:52:46.134Z,1012.87
2018-12-03T16:56:16.217Z,1013.15
2018-12-03T16:59:46.653Z,1013.21
2018-12-03T17:03:16.765Z,1013.12
2018-12-03T17:06:46.909Z,1013.3
2018-12-03T17:10:17.823Z,1013.5
2018-12-03T17:13:47.957Z,1013.62
2018-12-03T17:17:17.984Z,1013.43
2018-12-03T17:21:08.774Z,1013.41
2018-12-03T17:24:40.130Z,1012.13
2018-12-03T17:28:10.152Z,1011.49
2018-12-03T17:31:40.177Z,1011.54
2018-12-03T17:35:10.311Z,1012.25
2018-12-03T17:38:40.639Z,1012.68
2018-12-03T17:42:10.730Z,1013.11
2018-12-03T17:45:40.803Z,1013.5
2018-12-03T17:49:10.877Z,1013.77
2018-12-03T17:52:40.852Z,1013.9
2018-12-03T17:56:11.205Z,1013.96
2018-12-03T17:59:41.260Z,1013.91
2018-12-03T18:00:13.838Z,1014
2018-12-03T18:03:43.957Z,1013.35
2018-12-03T18:07:13.956Z,1012.65
2018-12-03T18:10:44.110Z,1012.23
2018-12-03T18:14:14.132Z,1011.8
2018-12-03T18:17:44.169Z,1012.43
2018-12-03T18:21:14.342Z,1012.7
2018-12-03T18:24:44.437Z,1012.9
2018-12-03T18:28:14.491Z,1012.9
2018-12-03T18:31:44.515Z,1012.95
2018-12-03T18:35:14.739Z,1013.44
2018-12-03T18:38:45.003Z,1013.32
2018-12-03T18:42:14.997Z,1013.1
2018-12-03T18:45:44.979Z,1012.91
2018-12-03T18:49:33.824Z,1012.82
2018-12-03T18:53:14.348Z,1012.82
2018-12-03T18:56:44.413Z,1012.95
2018-12-03T19:00:14.622Z,1012.71
2018-12-03T19:03:44.681Z,1012.09
2018-12-03T19:07:14.865Z,1010.43
2018-12-03T19:10:44.948Z,1010.31
2018-12-03T19:14:15.132Z,1009.87
2018-12-03T19:17:45.167Z,1009.92
2018-12-03T19:21:15.301Z,1010.1
2018-12-03T19:24:45.364Z,1010.27
2018-12-03T19:28:15.400Z,1010.64
2018-12-03T19:31:45.441Z,1010.88
2018-12-03T19:35:15.486Z,1011.04
2018-12-03T19:38:45.750Z,1011.55
2018-12-03T19:42:15.814Z,1011.84
2018-12-03T19:45:46.565Z,1011.48
2018-12-03T19:49:17.087Z,1011
2018-12-03T19:52:49.467Z,1011.24
2018-12-03T19:56:19.549Z,1011.16
2018-12-03T19:59:51.523Z,1010.78
2018-12-03T20:00:13.823Z,1010.82
2018-12-03T20:03:43.857Z,1010.81
2018-12-03T20:07:13.931Z,1010.77
2018-12-03T20:10:44.075Z,1010.97
2018-12-03T20:14:14.179Z,1010.98
2018-12-03T20:17:44.283Z,1010.48
2018-12-03T20:21:18.486Z,1010.78
2018-12-03T20:24:48.620Z,1010.9
2018-12-03T20:28:24.712Z,1010.85
2018-12-03T20:32:32.534Z,1010.14
2018-12-03T20:36:33.274Z,1009.9
2018-12-03T20:40:22.203Z,1010
2018-12-03T20:43:54.917Z,1009.79
2018-12-03T20:47:28.658Z,1009.43
2018-12-03T20:51:05.987Z,1009.53
2018-12-03T20:54:35.988Z,1008.92
2018-12-03T20:58:06.212Z,1008.74
2018-12-03T21:01:40.046Z,1008.18
2018-12-03T21:05:10.140Z,1007.91
2018-12-03T21:08:40.210Z,1007.39
2018-12-03T21:12:10.328Z,1007.38
2018-12-03T21:15:40.389Z,1006.99
2018-12-03T21:19:10.507Z,1007.14
2018-12-03T21:22:40.789Z,1007.36
2018-12-03T21:26:10.953Z,1007.16
2018-12-03T21:29:41.077Z,1006.96
2018-12-03T21:33:11.183Z,1006.94
2018-12-03T21:36:41.285Z,1007.07
2018-12-03T21:40:11.622Z,1006.65
2018-12-03T21:43:41.733Z,1006.67
2018-12-03T21:47:11.837Z,1006.25
2018-12-03T21:50:42.040Z,1006.18
2018-12-03T21:54:12.096Z,1006.05
2018-12-03T21:57:42.689Z,1006.09
2018-12-03T22:00:18.674Z,1006.17
2018-12-03T22:03:48.743Z,1006.26
2018-12-03T22:07:18.802Z,1005.95
2018-12-03T22:10:48.916Z,1006.1
2018-12-03T22:14:18.874Z,1006.39
2018-12-03T22:17:48.964Z,1006.39
2018-12-03T22:21:18.998Z,1006.46
2018-12-03T22:24:49.151Z,1005.67
2018-12-03T22:28:19.176Z,1005.62
2018-12-03T22:31:49.279Z,1006.02
2018-12-03T22:35:19.393Z,1005.96
2018-12-03T22:38:49.570Z,1006.05
2018-12-03T22:42:19.651Z,1006.35
2018-12-03T22:45:49.675Z,1006.52
2018-12-03T22:49:19.749Z,1006.16
2018-12-03T22:52:49.918Z,1006.16
2018-12-03T22:56:19.946Z,1006.2
2018-12-03T22:59:50.170Z,1006.75
2018-12-03T23:03:20.264Z,1006.81
2018-12-03T23:06:50.368Z,1007.36
2018-12-03T23:10:20.482Z,1007.42
2018-12-03T23:13:50.558Z,1007.39
2018-12-03T23:17:20.604Z,1007.51
2018-12-03T23:20:50.718Z,1007.54
2018-12-03T23:24:20.832Z,1007.79
2018-12-03T23:27:50.961Z,1007.87
2018-12-03T23:31:21.095Z,1007.67
2018-12-03T23:34:51.178Z,1007.61
2018-12-03T23:38:21.213Z,1007.67
2018-12-03T23:41:51.366Z,1007.92
2018-12-03T23:45:21.610Z,1008.13
2018-12-03T23:48:51.714Z,1008.27
2018-12-03T23:52:21.878Z,1008.2
2018-12-03T23:55:52.042Z,1008.45
2018-12-03T23:59:22.243Z,1008.29
